sensor_id;sensor_type;location;lat;lon;timestamp;P1;durP1;ratioP1;P2;durP2;ratioP2
11443;SDS011;5778;47.856;12.154;2023-03-01T00:01:07;35.23;;;26.37;;
11443;SDS011;5778;47.856;12.154;2023-03-01T00:03:36;33.03;;;24.87;;
11443;SDS011;5778;47.856;12.154;2023-03-01T00:06:04;35.27;;;25.60;;
11443;SDS011;5778;47.856;12.154;2023-03-01T00:08:32;34.47;;;25.07;;
11443;SDS011;5778;47.856;12.154;2023-03-01T00:11:03;37.73;;;26.70;;
11443;SDS011;5778;47.856;12.154;2023-03-01T00:13:33;35.03;;;25.53;;
11443;SDS011;5778;47.856;12.154;2023-03-01T00:16:01;39.63;;;27.73;;
11443;SDS011;5778;47.856;12.154;2023-03-01T00:18:29;36.80;;;26.67;;
11443;SDS011;5778;47.856;12.154;2023-03-01T00:20:57;37.20;;;27.43;;
11443;SDS011;5778;47.856;12.154;2023-03-01T00:23:25;33.23;;;26.13;;
11443;SDS011;5778;47.856;12.154;2023-03-01T00:25:53;33.50;;;24.90;;
11443;SDS011;5778;47.856;12.154;2023-03-01T00:28:22;37.97;;;25.83;;
11443;SDS011;5778;47.856;12.154;2023-03-01T00:30:50;35.83;;;25.43;;
11443;SDS011;5778;47.856;12.154;2023-03-01T00:33:18;32.10;;;23.57;;
11443;SDS011;5778;47.856;12.154;2023-03-01T00:35:46;32.97;;;24.63;;
11443;SDS011;5778;47.856;12.154;2023-03-01T00:38:13;31.23;;;23.27;;
11443;SDS011;5778;47.856;12.154;2023-03-01T00:40:40;37.60;;;25.00;;
11443;SDS011;5778;47.856;12.154;2023-03-01T00:43:08;35.80;;;25.30;;
11443;SDS011;5778;47.856;12.154;2023-03-01T00:45:37;34.77;;;25.00;;
11443;SDS011;5778;47.856;12.154;2023-03-01T00:48:06;31.47;;;23.07;;
11443;SDS011;5778;47.856;12.154;2023-03-01T00:50:33;32.47;;;24.50;;
11443;SDS011;5778;47.856;12.154;2023-03-01T00:53:01;35.07;;;25.90;;
11443;SDS011;5778;47.856;12.154;2023-03-01T00:55:30;32.30;;;24.33;;
11443;SDS011;5778;47.856;12.154;2023-03-01T00:57:58;29.07;;;22.67;;
11443;SDS011;5778;47.856;12.154;2023-03-01T01:00:25;28.03;;;21.10;;
11443;SDS011;5778;47.856;12.154;2023-03-01T01:02:54;23.27;;;18.87;;
11443;SDS011;5778;47.856;12.154;2023-03-01T01:05:21;22.60;;;16.73;;
11443;SDS011;5778;47.856;12.154;2023-03-01T01:07:49;21.47;;;16.87;;
11443;SDS011;5778;47.856;12.154;2023-03-01T01:10:16;22.20;;;16.07;;
11443;SDS011;5778;47.856;12.154;2023-03-01T01:12:44;20.03;;;15.40;;
11443;SDS011;5778;47.856;12.154;2023-03-01T01:15:12;20.53;;;15.43;;
11443;SDS011;5778;47.856;12.154;2023-03-01T01:17:41;18.83;;;14.73;;
11443;SDS011;5778;47.856;12.154;2023-03-01T01:20:13;17.77;;;14.90;;
11443;SDS011;5778;47.856;12.154;2023-03-01T01:22:40;22.90;;;16.00;;
11443;SDS011;5778;47.856;12.154;2023-03-01T01:25:09;20.40;;;15.03;;
11443;SDS011;5778;47.856;12.154;2023-03-01T01:27:37;19.87;;;15.30;;
11443;SDS011;5778;47.856;12.154;2023-03-01T01:30:05;18.87;;;14.80;;
11443;SDS011;5778;47.856;12.154;2023-03-01T01:32:33;17.90;;;14.77;;
11443;SDS011;5778;47.856;12.154;2023-03-01T01:35:01;20.67;;;15.53;;
11443;SDS011;5778;47.856;12.154;2023-03-01T01:37:29;19.97;;;15.30;;
11443;SDS011;5778;47.856;12.154;2023-03-01T01:39:57;21.00;;;15.47;;
11443;SDS011;5778;47.856;12.154;2023-03-01T01:42:25;20.63;;;14.73;;
11443;SDS011;5778;47.856;12.154;2023-03-01T01:47:59;21.43;;;15.60;;
11443;SDS011;5778;47.856;12.154;2023-03-01T01:50:30;21.93;;;15.23;;
11443;SDS011;5778;47.856;12.154;2023-03-01T01:53:05;20.07;;;14.87;;
11443;SDS011;5778;47.856;12.154;2023-03-01T01:55:39;21.10;;;14.87;;
11443;SDS011;5778;47.856;12.154;2023-03-01T01:58:09;21.10;;;15.20;;
11443;SDS011;5778;47.856;12.154;2023-03-01T02:00:40;20.53;;;14.00;;
11443;SDS011;5778;47.856;12.154;2023-03-01T02:03:10;19.80;;;14.97;;
11443;SDS011;5778;47.856;12.154;2023-03-01T02:05:40;19.37;;;15.03;;
11443;SDS011;5778;47.856;12.154;2023-03-01T02:08:16;20.00;;;14.73;;
11443;SDS011;5778;47.856;12.154;2023-03-01T02:10:45;18.90;;;14.93;;
11443;SDS011;5778;47.856;12.154;2023-03-01T02:13:15;18.83;;;14.80;;
11443;SDS011;5778;47.856;12.154;2023-03-01T02:15:45;17.90;;;14.67;;
11443;SDS011;5778;47.856;12.154;2023-03-01T02:18:13;18.80;;;14.43;;
11443;SDS011;5778;47.856;12.154;2023-03-01T02:20:46;18.10;;;15.53;;
11443;SDS011;5778;47.856;12.154;2023-03-01T02:23:23;18.57;;;15.20;;
11443;SDS011;5778;47.856;12.154;2023-03-01T02:25:52;21.57;;;14.60;;
11443;SDS011;5778;47.856;12.154;2023-03-01T02:28:27;16.40;;;14.37;;
11443;SDS011;5778;47.856;12.154;2023-03-01T02:30:56;19.73;;;14.17;;
11443;SDS011;5778;47.856;12.154;2023-03-01T02:33:43;19.70;;;14.90;;
11443;SDS011;5778;47.856;12.154;2023-03-01T02:36:15;19.73;;;15.20;;
11443;SDS011;5778;47.856;12.154;2023-03-01T02:38:45;17.40;;;13.93;;
11443;SDS011;5778;47.856;12.154;2023-03-01T02:41:15;18.37;;;14.90;;
11443;SDS011;5778;47.856;12.154;2023-03-01T02:43:45;17.97;;;14.37;;
11443;SDS011;5778;47.856;12.154;2023-03-01T02:46:14;19.07;;;14.73;;
11443;SDS011;5778;47.856;12.154;2023-03-01T02:48:46;18.57;;;15.13;;
11443;SDS011;5778;47.856;12.154;2023-03-01T02:54:13;18.57;;;14.67;;
11443;SDS011;5778;47.856;12.154;2023-03-01T02:56:50;17.40;;;14.30;;
11443;SDS011;5778;47.856;12.154;2023-03-01T02:59:22;19.20;;;15.03;;
11443;SDS011;5778;47.856;12.154;2023-03-01T03:01:54;19.67;;;14.97;;
11443;SDS011;5778;47.856;12.154;2023-03-01T03:04:21;17.80;;;14.20;;
11443;SDS011;5778;47.856;12.154;2023-03-01T03:06:49;18.53;;;14.47;;
11443;SDS011;5778;47.856;12.154;2023-03-01T03:09:17;19.23;;;14.83;;
11443;SDS011;5778;47.856;12.154;2023-03-01T03:11:45;18.77;;;15.20;;
11443;SDS011;5778;47.856;12.154;2023-03-01T03:14:13;19.97;;;15.00;;
11443;SDS011;5778;47.856;12.154;2023-03-01T03:16:48;18.13;;;15.07;;
11443;SDS011;5778;47.856;12.154;2023-03-01T03:19:16;20.13;;;15.30;;
11443;SDS011;5778;47.856;12.154;2023-03-01T03:21:44;18.13;;;14.30;;
11443;SDS011;5778;47.856;12.154;2023-03-01T03:24:13;20.23;;;14.57;;
11443;SDS011;5778;47.856;12.154;2023-03-01T03:26:47;18.43;;;14.60;;
11443;SDS011;5778;47.856;12.154;2023-03-01T03:29:18;19.03;;;14.73;;
11443;SDS011;5778;47.856;12.154;2023-03-01T03:31:46;19.10;;;14.63;;
11443;SDS011;5778;47.856;12.154;2023-03-01T03:34:13;19.03;;;14.77;;
11443;SDS011;5778;47.856;12.154;2023-03-01T03:36:43;18.37;;;14.63;;
11443;SDS011;5778;47.856;12.154;2023-03-01T03:39:10;19.50;;;15.47;;
11443;SDS011;5778;47.856;12.154;2023-03-01T03:41:37;19.80;;;15.30;;
11443;SDS011;5778;47.856;12.154;2023-03-01T03:44:06;19.63;;;15.03;;
11443;SDS011;5778;47.856;12.154;2023-03-01T03:46:34;20.67;;;15.30;;
11443;SDS011;5778;47.856;12.154;2023-03-01T03:49:04;18.43;;;14.57;;
11443;SDS011;5778;47.856;12.154;2023-03-01T03:51:32;19.47;;;15.17;;
11443;SDS011;5778;47.856;12.154;2023-03-01T03:53:59;20.27;;;15.93;;
11443;SDS011;5778;47.856;12.154;2023-03-01T03:56:26;22.90;;;15.57;;
11443;SDS011;5778;47.856;12.154;2023-03-01T03:58:56;19.70;;;15.70;;
11443;SDS011;5778;47.856;12.154;2023-03-01T04:01:23;19.93;;;15.43;;
11443;SDS011;5778;47.856;12.154;2023-03-01T04:03:50;20.67;;;16.20;;
11443;SDS011;5778;47.856;12.154;2023-03-01T04:06:21;19.63;;;15.53;;
11443;SDS011;5778;47.856;12.154;2023-03-01T04:08:48;23.73;;;16.13;;
11443;SDS011;5778;47.856;12.154;2023-03-01T04:11:23;20.67;;;15.90;;
11443;SDS011;5778;47.856;12.154;2023-03-01T04:13:54;20.60;;;15.43;;
11443;SDS011;5778;47.856;12.154;2023-03-01T04:16:22;21.83;;;15.53;;
11443;SDS011;5778;47.856;12.154;2023-03-01T04:18:50;22.10;;;16.30;;
11443;SDS011;5778;47.856;12.154;2023-03-01T04:21:23;19.83;;;15.47;;
11443;SDS011;5778;47.856;12.154;2023-03-01T04:23:50;20.73;;;16.50;;
11443;SDS011;5778;47.856;12.154;2023-03-01T04:26:17;19.20;;;15.97;;
11443;SDS011;5778;47.856;12.154;2023-03-01T04:28:45;21.60;;;16.87;;
11443;SDS011;5778;47.856;12.154;2023-03-01T04:31:15;21.77;;;16.60;;
11443;SDS011;5778;47.856;12.154;2023-03-01T04:33:46;20.93;;;16.03;;
11443;SDS011;5778;47.856;12.154;2023-03-01T04:36:17;21.33;;;15.67;;
11443;SDS011;5778;47.856;12.154;2023-03-01T04:38:48;22.10;;;16.17;;
11443;SDS011;5778;47.856;12.154;2023-03-01T04:41:16;22.23;;;17.27;;
11443;SDS011;5778;47.856;12.154;2023-03-01T04:43:45;22.97;;;16.30;;
11443;SDS011;5778;47.856;12.154;2023-03-01T04:46:16;23.07;;;17.10;;
11443;SDS011;5778;47.856;12.154;2023-03-01T04:48:47;21.93;;;16.40;;
11443;SDS011;5778;47.856;12.154;2023-03-01T04:51:14;23.97;;;16.73;;
11443;SDS011;5778;47.856;12.154;2023-03-01T04:53:43;21.20;;;16.73;;
11443;SDS011;5778;47.856;12.154;2023-03-01T04:56:12;20.93;;;16.03;;
11443;SDS011;5778;47.856;12.154;2023-03-01T04:58:40;20.60;;;16.77;;
11443;SDS011;5778;47.856;12.154;2023-03-01T05:01:10;22.73;;;16.10;;
11443;SDS011;5778;47.856;12.154;2023-03-01T05:03:42;21.93;;;16.33;;
11443;SDS011;5778;47.856;12.154;2023-03-01T05:06:10;23.87;;;17.20;;
11443;SDS011;5778;47.856;12.154;2023-03-01T05:08:39;21.70;;;16.50;;
11443;SDS011;5778;47.856;12.154;2023-03-01T05:11:08;21.67;;;15.80;;
11443;SDS011;5778;47.856;12.154;2023-03-01T05:13:43;22.37;;;16.23;;
11443;SDS011;5778;47.856;12.154;2023-03-01T05:16:11;20.80;;;16.30;;
11443;SDS011;5778;47.856;12.154;2023-03-01T05:18:39;23.13;;;16.67;;
11443;SDS011;5778;47.856;12.154;2023-03-01T05:21:09;21.33;;;15.70;;
11443;SDS011;5778;47.856;12.154;2023-03-01T05:23:38;20.60;;;16.50;;
11443;SDS011;5778;47.856;12.154;2023-03-01T05:26:06;24.97;;;17.33;;
11443;SDS011;5778;47.856;12.154;2023-03-01T05:28:36;19.93;;;15.83;;
11443;SDS011;5778;47.856;12.154;2023-03-01T05:31:04;21.00;;;16.63;;
11443;SDS011;5778;47.856;12.154;2023-03-01T05:33:35;20.73;;;15.70;;
11443;SDS011;5778;47.856;12.154;2023-03-01T05:36:03;22.77;;;16.53;;
11443;SDS011;5778;47.856;12.154;2023-03-01T05:38:32;20.43;;;16.07;;
11443;SDS011;5778;47.856;12.154;2023-03-01T05:41:01;22.70;;;16.47;;
11443;SDS011;5778;47.856;12.154;2023-03-01T05:43:29;22.20;;;16.43;;
11443;SDS011;5778;47.856;12.154;2023-03-01T05:46:01;20.40;;;15.97;;
11443;SDS011;5778;47.856;12.154;2023-03-01T05:48:28;21.97;;;16.03;;
11443;SDS011;5778;47.856;12.154;2023-03-01T05:50:58;22.73;;;16.60;;
11443;SDS011;5778;47.856;12.154;2023-03-01T05:53:25;23.57;;;16.77;;
11443;SDS011;5778;47.856;12.154;2023-03-01T05:55:52;22.40;;;16.43;;
11443;SDS011;5778;47.856;12.154;2023-03-01T05:58:19;22.70;;;16.60;;
11443;SDS011;5778;47.856;12.154;2023-03-01T06:00:47;23.63;;;16.63;;
11443;SDS011;5778;47.856;12.154;2023-03-01T06:03:16;22.70;;;15.87;;
11443;SDS011;5778;47.856;12.154;2023-03-01T06:05:44;20.70;;;16.07;;
11443;SDS011;5778;47.856;12.154;2023-03-01T06:08:11;22.43;;;16.23;;
11443;SDS011;5778;47.856;12.154;2023-03-01T06:10:38;24.53;;;16.33;;
11443;SDS011;5778;47.856;12.154;2023-03-01T06:13:05;23.30;;;16.93;;
11443;SDS011;5778;47.856;12.154;2023-03-01T06:15:32;23.20;;;16.23;;
11443;SDS011;5778;47.856;12.154;2023-03-01T06:17:59;21.30;;;16.17;;
11443;SDS011;5778;47.856;12.154;2023-03-01T06:20:28;27.17;;;17.30;;
11443;SDS011;5778;47.856;12.154;2023-03-01T06:22:55;20.23;;;16.80;;
11443;SDS011;5778;47.856;12.154;2023-03-01T06:25:23;22.40;;;16.57;;
11443;SDS011;5778;47.856;12.154;2023-03-01T06:27:51;22.37;;;16.20;;
11443;SDS011;5778;47.856;12.154;2023-03-01T06:30:19;26.70;;;17.30;;
11443;SDS011;5778;47.856;12.154;2023-03-01T06:32:47;21.17;;;16.87;;
11443;SDS011;5778;47.856;12.154;2023-03-01T06:35:14;29.17;;;17.27;;
11443;SDS011;5778;47.856;12.154;2023-03-01T06:37:45;25.70;;;17.63;;
11443;SDS011;5778;47.856;12.154;2023-03-01T06:40:12;22.20;;;16.17;;
11443;SDS011;5778;47.856;12.154;2023-03-01T06:42:41;23.13;;;17.07;;
11443;SDS011;5778;47.856;12.154;2023-03-01T06:45:09;23.43;;;18.50;;
11443;SDS011;5778;47.856;12.154;2023-03-01T06:47:37;27.47;;;18.37;;
11443;SDS011;5778;47.856;12.154;2023-03-01T06:50:04;22.77;;;17.40;;
11443;SDS011;5778;47.856;12.154;2023-03-01T06:52:32;24.33;;;17.27;;
11443;SDS011;5778;47.856;12.154;2023-03-01T06:55:00;23.67;;;17.50;;
11443;SDS011;5778;47.856;12.154;2023-03-01T06:57:27;23.60;;;17.70;;
11443;SDS011;5778;47.856;12.154;2023-03-01T06:59:55;22.23;;;16.97;;
11443;SDS011;5778;47.856;12.154;2023-03-01T07:02:22;28.20;;;18.30;;
11443;SDS011;5778;47.856;12.154;2023-03-01T07:04:49;22.23;;;16.20;;
11443;SDS011;5778;47.856;12.154;2023-03-01T07:07:17;24.70;;;17.40;;
11443;SDS011;5778;47.856;12.154;2023-03-01T07:09:44;25.07;;;17.00;;
11443;SDS011;5778;47.856;12.154;2023-03-01T07:12:13;22.93;;;17.63;;
11443;SDS011;5778;47.856;12.154;2023-03-01T07:14:40;23.27;;;17.93;;
11443;SDS011;5778;47.856;12.154;2023-03-01T07:17:07;23.60;;;17.90;;
11443;SDS011;5778;47.856;12.154;2023-03-01T07:19:34;23.57;;;17.60;;
11443;SDS011;5778;47.856;12.154;2023-03-01T07:22:00;23.47;;;17.43;;
11443;SDS011;5778;47.856;12.154;2023-03-01T07:24:29;22.10;;;17.67;;
11443;SDS011;5778;47.856;12.154;2023-03-01T07:26:57;24.07;;;17.70;;
11443;SDS011;5778;47.856;12.154;2023-03-01T07:29:27;23.73;;;17.63;;
11443;SDS011;5778;47.856;12.154;2023-03-01T07:31:55;22.90;;;17.53;;
11443;SDS011;5778;47.856;12.154;2023-03-01T07:37:31;24.13;;;17.53;;
11443;SDS011;5778;47.856;12.154;2023-03-01T07:39:58;23.87;;;18.13;;
11443;SDS011;5778;47.856;12.154;2023-03-01T07:42:25;22.50;;;16.43;;
11443;SDS011;5778;47.856;12.154;2023-03-01T07:44:54;23.00;;;18.20;;
11443;SDS011;5778;47.856;12.154;2023-03-01T07:47:20;22.70;;;17.57;;
11443;SDS011;5778;47.856;12.154;2023-03-01T07:49:48;25.47;;;18.47;;
11443;SDS011;5778;47.856;12.154;2023-03-01T07:52:15;23.63;;;17.43;;
11443;SDS011;5778;47.856;12.154;2023-03-01T07:54:53;25.07;;;16.87;;
11443;SDS011;5778;47.856;12.154;2023-03-01T07:57:21;24.87;;;17.93;;
11443;SDS011;5778;47.856;12.154;2023-03-01T07:59:48;25.23;;;17.60;;
11443;SDS011;5778;47.856;12.154;2023-03-01T08:02:18;24.73;;;18.50;;
11443;SDS011;5778;47.856;12.154;2023-03-01T08:04:45;24.77;;;18.83;;
11443;SDS011;5778;47.856;12.154;2023-03-01T08:07:13;26.27;;;19.67;;
11443;SDS011;5778;47.856;12.154;2023-03-01T08:09:40;24.00;;;18.23;;
11443;SDS011;5778;47.856;12.154;2023-03-01T08:12:07;24.50;;;19.13;;
11443;SDS011;5778;47.856;12.154;2023-03-01T08:14:39;23.80;;;18.13;;
11443;SDS011;5778;47.856;12.154;2023-03-01T08:17:06;24.07;;;17.60;;
11443;SDS011;5778;47.856;12.154;2023-03-01T08:19:35;28.53;;;19.00;;
11443;SDS011;5778;47.856;12.154;2023-03-01T08:22:03;24.40;;;17.53;;
11443;SDS011;5778;47.856;12.154;2023-03-01T08:24:38;23.23;;;17.23;;
11443;SDS011;5778;47.856;12.154;2023-03-01T08:27:05;26.63;;;18.47;;
11443;SDS011;5778;47.856;12.154;2023-03-01T08:29:32;26.20;;;19.03;;
11443;SDS011;5778;47.856;12.154;2023-03-01T08:31:59;25.40;;;19.03;;
11443;SDS011;5778;47.856;12.154;2023-03-01T08:34:31;28.90;;;19.97;;
11443;SDS011;5778;47.856;12.154;2023-03-01T08:37:02;24.70;;;18.37;;
11443;SDS011;5778;47.856;12.154;2023-03-01T08:39:28;26.10;;;19.63;;
11443;SDS011;5778;47.856;12.154;2023-03-01T08:41:56;24.67;;;19.03;;
11443;SDS011;5778;47.856;12.154;2023-03-01T08:47:16;26.10;;;18.73;;
11443;SDS011;5778;47.856;12.154;2023-03-01T08:49:43;27.47;;;19.63;;
11443;SDS011;5778;47.856;12.154;2023-03-01T08:52:12;24.80;;;19.03;;
11443;SDS011;5778;47.856;12.154;2023-03-01T08:57:34;25.50;;;18.53;;
11443;SDS011;5778;47.856;12.154;2023-03-01T09:00:01;26.53;;;19.07;;
11443;SDS011;5778;47.856;12.154;2023-03-01T09:02:41;24.37;;;18.90;;
11443;SDS011;5778;47.856;12.154;2023-03-01T09:05:08;26.47;;;19.47;;
11443;SDS011;5778;47.856;12.154;2023-03-01T09:07:37;24.00;;;18.67;;
11443;SDS011;5778;47.856;12.154;2023-03-01T09:10:05;23.70;;;18.10;;
11443;SDS011;5778;47.856;12.154;2023-03-01T09:15:32;22.00;;;18.10;;
11443;SDS011;5778;47.856;12.154;2023-03-01T09:17:59;27.27;;;20.27;;
11443;SDS011;5778;47.856;12.154;2023-03-01T09:20:27;23.23;;;18.27;;
11443;SDS011;5778;47.856;12.154;2023-03-01T09:23:05;26.77;;;17.97;;
11443;SDS011;5778;47.856;12.154;2023-03-01T09:25:34;28.33;;;18.73;;
11443;SDS011;5778;47.856;12.154;2023-03-01T09:28:02;24.20;;;18.30;;
11443;SDS011;5778;47.856;12.154;2023-03-01T09:30:29;26.40;;;18.37;;
11443;SDS011;5778;47.856;12.154;2023-03-01T09:32:58;24.57;;;18.47;;
11443;SDS011;5778;47.856;12.154;2023-03-01T09:35:25;23.10;;;18.87;;
11443;SDS011;5778;47.856;12.154;2023-03-01T09:37:53;25.50;;;18.30;;
11443;SDS011;5778;47.856;12.154;2023-03-01T09:40:23;24.40;;;18.67;;
11443;SDS011;5778;47.856;12.154;2023-03-01T09:43:16;22.30;;;18.20;;
11443;SDS011;5778;47.856;12.154;2023-03-01T09:46:01;26.17;;;18.13;;
11443;SDS011;5778;47.856;12.154;2023-03-01T09:48:33;22.47;;;17.63;;
11443;SDS011;5778;47.856;12.154;2023-03-01T09:51:08;23.63;;;17.90;;
11443;SDS011;5778;47.856;12.154;2023-03-01T09:56:39;24.37;;;19.13;;
11443;SDS011;5778;47.856;12.154;2023-03-01T09:59:14;25.80;;;19.10;;
11443;SDS011;5778;47.856;12.154;2023-03-01T10:01:50;23.13;;;17.97;;
11443;SDS011;5778;47.856;12.154;2023-03-01T10:07:22;21.97;;;18.00;;
11443;SDS011;5778;47.856;12.154;2023-03-01T10:09:57;20.20;;;16.57;;
11443;SDS011;5778;47.856;12.154;2023-03-01T10:12:40;21.97;;;16.77;;
11443;SDS011;5778;47.856;12.154;2023-03-01T10:15:20;19.67;;;15.93;;
11443;SDS011;5778;47.856;12.154;2023-03-01T10:17:53;19.30;;;15.43;;
11443;SDS011;5778;47.856;12.154;2023-03-01T10:20:23;20.37;;;16.17;;
11443;SDS011;5778;47.856;12.154;2023-03-01T10:23:03;19.70;;;16.00;;
11443;SDS011;5778;47.856;12.154;2023-03-01T10:25:36;18.10;;;14.97;;
11443;SDS011;5778;47.856;12.154;2023-03-01T10:28:18;22.77;;;15.93;;
11443;SDS011;5778;47.856;12.154;2023-03-01T10:30:51;21.13;;;15.97;;
11443;SDS011;5778;47.856;12.154;2023-03-01T10:33:23;19.53;;;15.93;;
11443;SDS011;5778;47.856;12.154;2023-03-01T10:35:53;21.10;;;17.20;;
11443;SDS011;5778;47.856;12.154;2023-03-01T10:38:21;21.10;;;16.00;;
11443;SDS011;5778;47.856;12.154;2023-03-01T10:40:50;21.87;;;16.87;;
11443;SDS011;5778;47.856;12.154;2023-03-01T10:43:26;20.27;;;16.53;;
11443;SDS011;5778;47.856;12.154;2023-03-01T10:45:57;23.40;;;16.33;;
11443;SDS011;5778;47.856;12.154;2023-03-01T10:48:25;20.60;;;16.80;;
11443;SDS011;5778;47.856;12.154;2023-03-01T10:51:04;20.80;;;16.27;;
11443;SDS011;5778;47.856;12.154;2023-03-01T10:53:37;20.10;;;16.47;;
11443;SDS011;5778;47.856;12.154;2023-03-01T10:56:08;19.27;;;16.10;;
11443;SDS011;5778;47.856;12.154;2023-03-01T10:58:39;20.37;;;15.97;;
11443;SDS011;5778;47.856;12.154;2023-03-01T11:01:23;19.27;;;14.70;;
11443;SDS011;5778;47.856;12.154;2023-03-01T11:06:42;16.27;;;13.87;;
11443;SDS011;5778;47.856;12.154;2023-03-01T11:09:13;20.93;;;14.70;;
11443;SDS011;5778;47.856;12.154;2023-03-01T11:11:43;21.13;;;15.40;;
11443;SDS011;5778;47.856;12.154;2023-03-01T11:17:12;18.00;;;14.37;;
11443;SDS011;5778;47.856;12.154;2023-03-01T11:19:44;18.53;;;15.00;;
11443;SDS011;5778;47.856;12.154;2023-03-01T11:22:27;19.27;;;15.37;;
11443;SDS011;5778;47.856;12.154;2023-03-01T11:24:55;20.03;;;16.40;;
11443;SDS011;5778;47.856;12.154;2023-03-01T11:27:24;19.67;;;15.77;;
11443;SDS011;5778;47.856;12.154;2023-03-01T11:29:57;17.87;;;15.83;;
11443;SDS011;5778;47.856;12.154;2023-03-01T11:32:47;18.77;;;15.40;;
11443;SDS011;5778;47.856;12.154;2023-03-01T11:35:20;17.63;;;14.53;;
11443;SDS011;5778;47.856;12.154;2023-03-01T11:37:54;19.60;;;15.43;;
11443;SDS011;5778;47.856;12.154;2023-03-01T11:40:29;20.53;;;14.73;;
11443;SDS011;5778;47.856;12.154;2023-03-01T11:43:05;21.27;;;16.30;;
11443;SDS011;5778;47.856;12.154;2023-03-01T11:45:58;20.40;;;15.60;;
11443;SDS011;5778;47.856;12.154;2023-03-01T11:48:51;19.77;;;15.53;;
11443;SDS011;5778;47.856;12.154;2023-03-01T11:51:31;21.67;;;16.03;;
11443;SDS011;5778;47.856;12.154;2023-03-01T11:57:14;18.60;;;15.73;;
11443;SDS011;5778;47.856;12.154;2023-03-01T12:06:02;20.17;;;15.80;;
11443;SDS011;5778;47.856;12.154;2023-03-01T12:08:56;18.73;;;15.17;;
11443;SDS011;5778;47.856;12.154;2023-03-01T12:11:41;19.30;;;15.03;;
11443;SDS011;5778;47.856;12.154;2023-03-01T12:14:32;20.27;;;14.83;;
11443;SDS011;5778;47.856;12.154;2023-03-01T12:17:34;18.30;;;15.03;;
11443;SDS011;5778;47.856;12.154;2023-03-01T12:26:17;20.20;;;15.17;;
11443;SDS011;5778;47.856;12.154;2023-03-01T12:28:56;17.03;;;14.00;;
11443;SDS011;5778;47.856;12.154;2023-03-01T12:31:50;18.10;;;15.07;;
11443;SDS011;5778;47.856;12.154;2023-03-01T12:37:35;18.70;;;14.83;;
11443;SDS011;5778;47.856;12.154;2023-03-01T12:43:49;19.53;;;15.00;;
11443;SDS011;5778;47.856;12.154;2023-03-01T12:46:28;18.80;;;15.53;;
11443;SDS011;5778;47.856;12.154;2023-03-01T12:49:09;17.93;;;14.97;;
11443;SDS011;5778;47.856;12.154;2023-03-01T12:51:40;18.53;;;15.27;;
11443;SDS011;5778;47.856;12.154;2023-03-01T12:54:21;19.10;;;15.40;;
11443;SDS011;5778;47.856;12.154;2023-03-01T12:56:52;19.30;;;15.80;;
11443;SDS011;5778;47.856;12.154;2023-03-01T12:59:21;20.73;;;16.47;;
11443;SDS011;5778;47.856;12.154;2023-03-01T13:01:55;18.03;;;15.07;;
11443;SDS011;5778;47.856;12.154;2023-03-01T13:04:50;18.33;;;14.40;;
11443;SDS011;5778;47.856;12.154;2023-03-01T13:07:29;18.23;;;15.30;;
11443;SDS011;5778;47.856;12.154;2023-03-01T13:10:06;17.83;;;15.20;;
11443;SDS011;5778;47.856;12.154;2023-03-01T13:15:39;18.27;;;14.87;;
11443;SDS011;5778;47.856;12.154;2023-03-01T13:20:56;17.60;;;15.17;;
11443;SDS011;5778;47.856;12.154;2023-03-01T13:23:26;18.37;;;15.10;;
11443;SDS011;5778;47.856;12.154;2023-03-01T13:26:10;17.87;;;15.23;;
11443;SDS011;5778;47.856;12.154;2023-03-01T13:34:44;17.13;;;15.33;;
11443;SDS011;5778;47.856;12.154;2023-03-01T13:37:21;19.17;;;15.87;;
11443;SDS011;5778;47.856;12.154;2023-03-01T13:39:56;19.70;;;15.30;;
11443;SDS011;5778;47.856;12.154;2023-03-01T13:42:37;20.83;;;16.33;;
11443;SDS011;5778;47.856;12.154;2023-03-01T13:45:15;20.90;;;16.03;;
11443;SDS011;5778;47.856;12.154;2023-03-01T13:47:54;18.93;;;15.00;;
11443;SDS011;5778;47.856;12.154;2023-03-01T13:50:25;20.70;;;15.97;;
11443;SDS011;5778;47.856;12.154;2023-03-01T13:53:09;19.60;;;16.00;;
11443;SDS011;5778;47.856;12.154;2023-03-01T13:55:44;18.37;;;14.67;;
11443;SDS011;5778;47.856;12.154;2023-03-01T14:01:01;17.93;;;15.43;;
11443;SDS011;5778;47.856;12.154;2023-03-01T14:03:33;18.53;;;15.17;;
11443;SDS011;5778;47.856;12.154;2023-03-01T14:06:08;17.63;;;15.30;;
11443;SDS011;5778;47.856;12.154;2023-03-01T14:08:38;20.10;;;16.10;;
11443;SDS011;5778;47.856;12.154;2023-03-01T14:11:13;20.43;;;16.77;;
11443;SDS011;5778;47.856;12.154;2023-03-01T14:14:06;18.10;;;15.60;;
11443;SDS011;5778;47.856;12.154;2023-03-01T14:16:52;18.90;;;16.10;;
11443;SDS011;5778;47.856;12.154;2023-03-01T14:19:27;19.07;;;15.33;;
11443;SDS011;5778;47.856;12.154;2023-03-01T14:22:00;18.23;;;15.70;;
11443;SDS011;5778;47.856;12.154;2023-03-01T14:27:30;18.27;;;16.07;;
11443;SDS011;5778;47.856;12.154;2023-03-01T14:30:03;18.70;;;15.80;;
11443;SDS011;5778;47.856;12.154;2023-03-01T14:32:39;18.60;;;16.10;;
11443;SDS011;5778;47.856;12.154;2023-03-01T14:35:18;17.87;;;15.97;;
11443;SDS011;5778;47.856;12.154;2023-03-01T14:37:47;18.20;;;15.50;;
11443;SDS011;5778;47.856;12.154;2023-03-01T14:44:36;18.20;;;16.13;;
11443;SDS011;5778;47.856;12.154;2023-03-01T14:47:10;17.90;;;15.67;;
11443;SDS011;5778;47.856;12.154;2023-03-01T14:49:40;18.60;;;16.03;;
11443;SDS011;5778;47.856;12.154;2023-03-01T14:52:16;18.00;;;16.10;;
11443;SDS011;5778;47.856;12.154;2023-03-01T14:54:46;18.37;;;16.07;;
11443;SDS011;5778;47.856;12.154;2023-03-01T14:57:17;19.77;;;16.33;;
11443;SDS011;5778;47.856;12.154;2023-03-01T14:59:46;19.40;;;17.30;;
11443;SDS011;5778;47.856;12.154;2023-03-01T15:02:18;20.33;;;16.67;;
11443;SDS011;5778;47.856;12.154;2023-03-01T15:04:49;19.97;;;16.33;;
11443;SDS011;5778;47.856;12.154;2023-03-01T15:07:18;19.70;;;16.50;;
11443;SDS011;5778;47.856;12.154;2023-03-01T15:09:46;18.33;;;16.33;;
11443;SDS011;5778;47.856;12.154;2023-03-01T15:12:25;18.03;;;15.90;;
11443;SDS011;5778;47.856;12.154;2023-03-01T15:15:18;18.73;;;16.33;;
11443;SDS011;5778;47.856;12.154;2023-03-01T15:17:51;18.03;;;15.80;;
11443;SDS011;5778;47.856;12.154;2023-03-01T15:20:22;18.13;;;15.27;;
11443;SDS011;5778;47.856;12.154;2023-03-01T15:22:56;19.70;;;16.97;;
11443;SDS011;5778;47.856;12.154;2023-03-01T15:25:25;17.93;;;15.63;;
11443;SDS011;5778;47.856;12.154;2023-03-01T15:27:55;19.40;;;16.53;;
11443;SDS011;5778;47.856;12.154;2023-03-01T15:30:25;19.57;;;17.00;;
11443;SDS011;5778;47.856;12.154;2023-03-01T15:35:56;19.80;;;17.07;;
11443;SDS011;5778;47.856;12.154;2023-03-01T15:38:32;22.10;;;17.33;;
11443;SDS011;5778;47.856;12.154;2023-03-01T15:41:05;18.83;;;16.77;;
11443;SDS011;5778;47.856;12.154;2023-03-01T15:43:51;18.23;;;16.03;;
11443;SDS011;5778;47.856;12.154;2023-03-01T15:46:23;20.53;;;17.13;;
11443;SDS011;5778;47.856;12.154;2023-03-01T15:48:56;21.27;;;17.57;;
11443;SDS011;5778;47.856;12.154;2023-03-01T15:51:29;21.00;;;17.37;;
11443;SDS011;5778;47.856;12.154;2023-03-01T15:54:02;21.93;;;18.10;;
11443;SDS011;5778;47.856;12.154;2023-03-01T15:56:34;22.60;;;17.90;;
11443;SDS011;5778;47.856;12.154;2023-03-01T15:59:01;20.63;;;17.57;;
11443;SDS011;5778;47.856;12.154;2023-03-01T16:01:29;20.93;;;17.90;;